Deer Island, Oregon
Current Conditions -  °F | °C
As of 4:53 PM on Tuesday 21 Oct 2014 (Local Time) from KSPB Reporting Station
Overcast Overcast  
Wind Chill: 58°   Ceiling: 4100
Heat Index: 58°   Visibility: 10mi
Dew Point: 52°   Wind: 5mph
Humidity: 81%   Direction: 170°S
Pressure: 29.94"   Gusts: NA
Location:  45.93°N, 122.84°W
Report Text: KSPB 212353Z AUTO 17004KT 10SM OVC041 14/11 A2994 RMK AO2 SLP137 60001 T01440111 10156 20133 58010
Loading
Personal Weather Stations






























Interactive Weather Map
Tropical Storm Tracking
New forecast layout! Learn more

10-Day Weather Forecast

Advertisements
Track Severe Weather on mobile